Time;durP1;ratioP1;P1;durP2;ratioP2;P2;SDS_P1;SDS_P2;PMS_P1;PMS_P2;Temp;Humidity;BMP_temperature;BMP_pressure;BME280_temperature;BME280_humidity;BME280_pressure;Samples;Min_cycle;Max_cycle;Signal;HPM_P1;HPM_P2
2024/03/15 00:00:24;;;;;;;5.40;3.33;;;;;;;9.08;63.96;99355.81;10432702;28;20830;-60
2024/03/15 00:05:29;;;;;;;6.63;3.60;;;;;;;9.10;63.89;99355.72;10432752;28;20057;-60
2024/03/15 00:10:32;;;;;;;6.53;3.13;;;;;;;8.87;63.66;99357.16;10433983;28;20041;-60
2024/03/15 00:15:34;;;;;;;5.20;3.10;;;;;;;8.87;64.13;99359.78;10433773;28;20084;-60
2024/03/15 00:20:36;;;;;;;4.43;2.88;;;;;;;8.87;64.07;99359.78;10432575;28;20051;-60
2024/03/15 00:25:38;;;;;;;7.68;3.42;;;;;;;8.88;64.12;99356.22;10433688;28;20134;-61
2024/03/15 00:30:41;;;;;;;5.85;3.42;;;;;;;9.04;64.04;99351.72;10431401;28;20072;-60
2024/03/15 00:35:43;;;;;;;8.80;3.80;;;;;;;9.11;63.87;99360.84;10433226;28;20088;-60
2024/03/15 00:40:45;;;;;;;8.88;4.07;;;;;;;9.13;63.75;99358.16;10435646;28;20150;-60
2024/03/15 00:45:47;;;;;;;9.25;3.88;;;;;;;9.15;63.88;99359.72;10432644;28;20048;-61
2024/03/15 00:50:49;;;;;;;7.38;3.60;;;;;;;9.16;63.64;99357.94;10434999;28;20045;-60
2024/03/15 00:55:51;;;;;;;5.93;3.67;;;;;;;9.05;63.50;99363.84;10433285;28;20094;-60
2024/03/15 01:00:53;;;;;;;5.82;3.45;;;;;;;8.90;63.65;99349.16;10431216;28;20127;-60
2024/03/15 01:05:56;;;;;;;4.82;2.85;;;;;;;8.87;63.78;99351.09;10431531;28;20122;-60
2024/03/15 01:10:58;;;;;;;5.50;3.00;;;;;;;8.82;63.74;99356.59;10429696;28;20534;-60
2024/03/15 01:16:03;;;;;;;6.95;3.00;;;;;;;8.72;63.96;99348.53;10430816;28;20515;-61
2024/03/15 01:21:05;;;;;;;5.75;3.55;;;;;;;8.61;63.88;99348.31;10432554;28;20550;-60
2024/03/15 01:26:07;;;;;;;5.60;3.20;;;;;;;8.54;63.88;99343.59;10431941;28;20505;-60
2024/03/15 01:31:09;;;;;;;8.48;3.83;;;;;;;8.43;63.79;99343.38;10429036;28;20056;-60
2024/03/15 01:36:11;;;;;;;8.25;3.15;;;;;;;8.36;63.98;99337.72;10431565;28;20409;-60
2024/03/15 01:41:13;;;;;;;4.80;2.80;;;;;;;8.31;64.05;99337.16;10431681;28;20042;-60
2024/03/15 01:46:16;;;;;;;5.85;3.15;;;;;;;8.27;64.28;99329.59;10434350;28;20110;-60
2024/03/15 01:51:18;;;;;;;6.60;3.95;;;;;;;8.19;64.28;99331.81;10432861;28;20469;-60
2024/03/15 01:56:21;;;;;;;7.07;3.90;;;;;;;8.09;64.24;99321.09;10460316;28;20053;-60
2024/03/15 02:01:23;;;;;;;8.27;4.15;;;;;;;8.02;64.31;99318.00;10425684;28;20044;-60
2024/03/15 02:06:25;;;;;;;6.57;3.83;;;;;;;7.88;64.82;99317.13;10411213;28;20136;-60
2024/03/15 02:11:27;;;;;;;5.72;3.33;;;;;;;7.83;64.62;99327.00;10432622;28;20592;-60
2024/03/15 02:16:29;;;;;;;7.47;3.78;;;;;;;7.78;65.14;99327.25;10428977;28;20044;-60
2024/03/15 02:21:31;;;;;;;6.40;3.75;;;;;;;7.87;64.83;99329.34;10431386;28;20136;-61
2024/03/15 02:26:33;;;;;;;7.22;3.40;;;;;;;7.85;64.87;99323.34;10427733;28;20399;-60
2024/03/15 02:31:35;;;;;;;9.25;3.42;;;;;;;7.81;65.00;99324.47;10430106;28;20045;-61
2024/03/15 02:36:40;;;;;;;6.72;3.75;;;;;;;7.77;64.94;99324.75;10428903;28;20504;-60
2024/03/15 02:41:43;;;;;;;10.32;3.78;;;;;;;7.75;64.88;99332.63;10432666;28;20063;-60
2024/03/15 02:46:46;;;;;;;34.50;4.55;;;;;;;7.78;65.04;99324.66;10425946;28;20132;-60
2024/03/15 02:51:48;;;;;;;55.33;5.20;;;;;;;7.72;64.94;99308.53;10429791;28;20154;-60
2024/03/15 02:56:50;;;;;;;6.45;3.15;;;;;;;7.73;64.99;99325.84;10429182;28;20055;-60
2024/03/15 03:01:52;;;;;;;6.30;2.90;;;;;;;7.80;64.88;99321.94;10429945;28;20138;-60
2024/03/15 03:06:54;;;;;;;7.05;3.45;;;;;;;7.96;64.76;99327.94;10426200;28;20044;-61
2024/03/15 03:11:57;;;;;;;5.97;3.30;;;;;;;8.06;64.61;99328.25;10429959;28;20060;-60
2024/03/15 03:16:59;;;;;;;6.80;2.95;;;;;;;8.15;64.48;99327.72;10429391;28;20052;-61
2024/03/15 03:22:04;;;;;;;5.60;3.45;;;;;;;7.98;64.71;99332.13;10429762;28;20041;-60
2024/03/15 03:27:06;;;;;;;5.95;3.53;;;;;;;8.02;64.51;99330.19;10429294;28;20045;-61
2024/03/15 03:32:08;;;;;;;9.77;3.72;;;;;;;7.98;64.45;99331.28;10434789;28;20048;-61
2024/03/15 03:37:14;;;;;;;6.78;3.67;;;;;;;8.03;64.33;99326.66;10442319;28;20444;-60
2024/03/15 03:42:16;;;;;;;6.82;3.60;;;;;;;8.10;64.26;99330.59;10442842;28;20471;-60
2024/03/15 03:47:19;;;;;;;6.68;2.90;;;;;;;8.16;64.20;99335.44;10424051;28;20091;-61
2024/03/15 03:52:21;;;;;;;10.05;4.20;;;;;;;8.11;64.39;99331.44;10442402;28;20131;-60
2024/03/15 03:57:23;;;;;;;36.42;4.07;;;;;;;8.10;64.33;99333.19;10437175;28;20259;-60
2024/03/15 04:02:49;;;;;;;5.63;3.25;;;;;;;8.09;64.22;99338.47;10438554;28;20357;-61
2024/03/15 04:07:54;;;;;;;7.63;3.42;;;;;;;7.92;64.40;99335.09;10438862;28;20041;-61
2024/03/15 04:12:56;;;;;;;12.00;4.18;;;;;;;7.83;64.42;99342.63;10440764;28;20500;-60
2024/03/15 04:17:58;;;;;;;24.45;3.72;;;;;;;7.65;64.78;99343.66;10441603;28;20053;-61
2024/03/15 04:23:02;;;;;;;14.23;4.05;;;;;;;7.60;65.17;99341.31;10438447;28;20044;-61
2024/03/15 04:28:04;;;;;;;13.10;3.53;;;;;;;7.66;65.10;99333.16;10439828;28;20501;-61
2024/03/15 04:33:06;;;;;;;48.42;4.28;;;;;;;7.65;64.93;99331.47;10457559;28;20064;-61
2024/03/15 04:38:08;;;;;;;43.45;5.32;;;;;;;7.64;64.93;99337.63;10440343;28;20497;-62
2024/03/15 04:43:10;;;;;;;138.63;5.82;;;;;;;7.65;64.85;99339.28;10440450;28;20045;-61
2024/03/15 04:48:13;;;;;;;48.85;4.53;;;;;;;7.66;64.92;99338.38;10434605;28;20068;-61
2024/03/15 04:53:15;;;;;;;111.93;4.65;;;;;;;7.71;64.91;99343.31;10434940;28;20136;-61
2024/03/15 04:58:17;;;;;;;42.83;3.80;;;;;;;7.71;65.09;99344.13;10430514;28;20070;-61
2024/03/15 05:03:19;;;;;;;40.03;4.22;;;;;;;7.71;65.13;99351.13;10435406;28;20186;-61
2024/03/15 05:08:21;;;;;;;93.63;4.75;;;;;;;7.69;65.10;99350.38;10432527;28;20052;-61
2024/03/15 05:13:24;;;;;;;12.18;2.95;;;;;;;7.72;65.28;99350.19;10432633;28;20060;-61
2024/03/15 05:18:29;;;;;;;24.80;3.80;;;;;;;7.77;65.05;99348.19;10431497;28;20952;-61
2024/03/15 05:23:31;;;;;;;29.08;3.42;;;;;;;7.77;65.10;99353.38;10435264;28;20070;-61
2024/03/15 05:28:34;;;;;;;6.72;3.53;;;;;;;7.83;64.79;99348.63;10431076;28;20053;-61
2024/03/15 05:33:37;;;;;;;13.00;3.20;;;;;;;7.68;65.12;99341.72;10433696;28;20059;-62
2024/03/15 05:38:39;;;;;;;115.47;5.28;;;;;;;7.64;65.31;99339.38;10433677;28;20053;-61
2024/03/15 05:43:42;;;;;;;40.17;4.40;;;;;;;7.68;65.45;99338.28;10433209;28;20102;-61
2024/03/15 05:48:44;;;;;;;55.40;4.13;;;;;;;7.61;65.44;99337.78;10433380;28;20131;-62
2024/03/15 05:53:47;;;;;;;66.13;4.78;;;;;;;7.71;65.35;99345.94;10433182;28;20552;-62
2024/03/15 05:58:50;;;;;;;9.90;3.15;;;;;;;7.79;65.37;99349.75;10426133;28;20049;-61
2024/03/15 06:03:52;;;;;;;6.75;3.22;;;;;;;7.89;65.36;99348.31;10433476;28;20444;-61
2024/03/15 06:08:55;;;;;;;8.35;3.30;;;;;;;7.98;65.25;99360.78;10432049;28;20095;-61
2024/03/15 06:13:57;;;;;;;7.20;3.20;;;;;;;8.09;65.03;99356.72;10430338;28;20045;-61
2024/03/15 06:18:59;;;;;;;5.22;3.13;;;;;;;8.09;64.74;99359.31;10430665;28;20045;-62
2024/03/15 06:24:01;;;;;;;5.07;2.92;;;;;;;8.16;65.03;99355.47;10433041;28;20568;-62
2024/03/15 06:29:03;;;;;;;5.32;2.65;;;;;;;8.24;64.74;99356.66;10432019;28;20282;-61
2024/03/15 06:34:08;;;;;;;6.20;3.22;;;;;;;8.25;64.88;99357.50;10430376;28;20225;-61
2024/03/15 06:39:50;;;;;;;6.07;2.97;;;;;;;8.40;64.57;99346.19;10428995;28;20114;-62
2024/03/15 06:44:50;;;;;;;4.35;2.65;;;;;;;8.55;64.62;99363.50;10431666;28;20469;-61
2024/03/15 06:50:06;;;;;;;4.75;2.60;;;;;;;8.68;64.45;99369.66;10428181;28;20045;-61
2024/03/15 06:55:10;;;;;;;5.95;2.75;;;;;;;8.79;64.47;99369.84;10426235;28;20037;-61
2024/03/15 07:00:14;;;;;;;5.90;2.30;;;;;;;8.79;64.47;99373.25;10426670;28;20156;-62
2024/03/15 07:05:23;;;;;;;3.50;2.22;;;;;;;8.91;64.45;99363.03;10428737;28;20060;-62
2024/03/15 07:10:25;;;;;;;5.47;2.60;;;;;;;9.14;64.26;99367.63;10423154;28;20090;-61
2024/03/15 07:15:28;;;;;;;3.58;2.13;;;;;;;9.37;64.10;99375.69;10412404;28;20045;-62
2024/03/15 07:20:36;;;;;;;4.07;2.35;;;;;;;9.73;63.75;99362.06;10421158;28;20045;-57
2024/03/15 07:25:38;;;;;;;4.05;2.20;;;;;;;10.10;63.31;99366.56;10422338;28;20072;-56
2024/03/15 07:30:40;;;;;;;4.40;2.30;;;;;;;10.32;63.00;99373.78;10423388;28;20106;-56
2024/03/15 07:35:42;;;;;;;4.05;2.13;;;;;;;10.52;62.70;99381.13;10425644;28;20152;-57
2024/03/15 07:40:44;;;;;;;5.57;2.05;;;;;;;10.93;62.59;99379.09;10425135;28;22094;-56
2024/03/15 07:45:49;;;;;;;4.20;2.10;;;;;;;11.42;62.42;99386.97;10425754;28;20405;-57
2024/03/15 07:50:51;;;;;;;3.47;1.80;;;;;;;11.56;62.39;99378.13;10425310;28;20052;-55
2024/03/15 07:55:54;;;;;;;4.10;1.88;;;;;;;11.78;62.50;99388.72;10419952;28;20497;-55
2024/03/15 08:00:56;;;;;;;3.90;2.15;;;;;;;12.02;62.37;99400.84;10424464;28;20064;-55
2024/03/15 08:06:00;;;;;;;3.20;1.65;;;;;;;12.21;62.16;99389.84;10423571;28;20060;-57
2024/03/15 08:11:03;;;;;;;3.13;1.80;;;;;;;12.29;62.14;99392.75;10422532;28;20052;-57
2024/03/15 08:16:18;;;;;;;2.22;1.50;;;;;;;12.23;61.89;99393.19;10424750;28;20064;-58
2024/03/15 08:21:24;;;;;;;3.97;1.98;;;;;;;12.48;61.80;99400.88;10435972;28;20151;-58
2024/03/15 08:26:28;;;;;;;3.60;1.88;;;;;;;12.67;60.95;99406.41;10436987;28;20045;-58
2024/03/15 08:31:30;;;;;;;4.35;1.67;;;;;;;12.70;60.94;99402.72;10434580;28;20048;-57
2024/03/15 08:36:34;;;;;;;4.95;1.80;;;;;;;12.86;60.52;99395.34;10438794;28;20252;-58
2024/03/15 08:41:36;;;;;;;3.40;1.83;;;;;;;13.07;60.38;99401.53;10437842;28;20060;-58
2024/03/15 08:46:39;;;;;;;2.38;1.40;;;;;;;13.34;59.94;99406.41;10438626;28;20072;-58
2024/03/15 08:51:45;;;;;;;5.03;1.42;;;;;;;13.54;59.24;99403.03;10438903;28;20095;-58
2024/03/15 08:56:47;;;;;;;2.83;1.40;;;;;;;13.64;58.93;99409.22;10437679;28;20077;-57
2024/03/15 09:01:49;;;;;;;3.20;1.30;;;;;;;13.73;58.89;99416.38;10438382;28;20075;-57
2024/03/15 09:06:51;;;;;;;2.85;1.80;;;;;;;13.82;58.71;99410.38;10436421;28;20409;-59
2024/03/15 09:11:54;;;;;;;3.30;1.70;;;;;;;13.91;58.70;99407.00;10438277;28;20056;-58
2024/03/15 09:16:56;;;;;;;4.22;1.55;;;;;;;14.10;58.14;99417.69;10419323;28;20049;-56
2024/03/15 09:21:59;;;;;;;3.38;1.70;;;;;;;14.28;57.54;99403.03;10436907;28;20053;-57
2024/03/15 09:27:02;;;;;;;4.93;1.88;;;;;;;14.82;57.28;99394.09;10431255;28;20044;-57
2024/03/15 09:32:05;;;;;;;4.60;2.67;;;;;;;15.08;56.22;99396.13;10435795;28;20057;-58
2024/03/15 09:37:19;;;;;;;2.35;1.50;;;;;;;14.93;55.60;99394.00;10436078;28;20048;-57
2024/03/15 09:42:25;;;;;;;2.80;1.48;;;;;;;14.86;56.38;99401.59;10435022;28;20456;-56
2024/03/15 09:47:27;;;;;;;3.63;1.50;;;;;;;14.78;56.27;99413.75;10432865;28;20057;-58
2024/03/15 09:52:30;;;;;;;3.30;1.80;;;;;;;14.33;57.01;99418.44;10434454;28;20060;-58
2024/03/15 09:57:32;;;;;;;2.58;1.40;;;;;;;14.33;56.84;99413.16;10434488;28;20523;-59
2024/03/15 10:02:34;;;;;;;4.03;1.45;;;;;;;14.52;56.67;99418.56;10435791;28;21014;-58
2024/03/15 10:07:37;;;;;;;2.20;1.33;;;;;;;14.26;57.93;99423.34;10435434;28;20049;-58
2024/03/15 10:12:44;;;;;;;4.15;1.60;;;;;;;13.93;59.40;99425.28;10467085;28;20110;-57
2024/03/15 10:17:51;;;;;;;2.50;1.58;;;;;;;13.53;60.70;99433.75;10431001;28;20049;-58
2024/03/15 10:22:56;;;;;;;4.95;1.60;;;;;;;13.50;60.88;99439.25;10434739;28;20037;-58
2024/03/15 10:27:58;;;;;;;2.47;1.48;;;;;;;13.78;61.33;99435.22;10434422;28;20110;-57
2024/03/15 10:33:03;;;;;;;1.85;1.33;;;;;;;14.49;60.76;99435.44;10433868;28;20064;-57
2024/03/15 10:38:06;;;;;;;2.42;1.38;;;;;;;14.79;60.07;99436.47;10432707;28;20053;-57
2024/03/15 10:43:11;;;;;;;1.88;1.27;;;;;;;15.08;59.77;99424.28;10431266;28;20045;-57
2024/03/15 10:48:15;;;;;;;3.30;1.92;;;;;;;15.22;59.28;99430.03;10430359;28;20144;-57
2024/03/15 10:53:19;;;;;;;3.35;1.40;;;;;;;15.23;59.42;99430.84;10430919;28;20064;-57
2024/03/15 10:58:22;;;;;;;2.65;1.33;;;;;;;15.10;59.34;99430.25;10432897;28;20085;-58
2024/03/15 11:03:25;;;;;;;1.73;1.10;;;;;;;14.87;59.76;99439.28;10431743;28;20069;-59
2024/03/15 11:08:34;;;;;;;1.80;1.17;;;;;;;14.73;59.80;99431.72;10431274;28;20516;-58
2024/03/15 11:13:36;;;;;;;1.45;0.90;;;;;;;14.54;59.86;99438.53;10433163;28;20064;-57
2024/03/15 11:18:39;;;;;;;1.02;0.90;;;;;;;14.36;60.33;99450.56;10447611;28;20084;-58
2024/03/15 11:23:41;;;;;;;1.33;0.82;;;;;;;14.20;60.56;99454.59;10433355;28;20128;-58
2024/03/15 11:28:43;;;;;;;1.55;1.00;;;;;;;14.33;60.69;99448.19;10431983;28;20117;-58
2024/03/15 11:33:45;;;;;;;1.73;0.93;;;;;;;14.79;60.01;99445.22;10430137;28;20236;-57
2024/03/15 11:38:49;;;;;;;1.20;0.75;;;;;;;15.22;59.26;99439.75;10432365;28;20049;-57
2024/03/15 11:43:55;;;;;;;1.13;0.95;;;;;;;15.53;58.36;99444.00;10431236;28;20676;-57
2024/03/15 11:49:02;;;;;;;1.15;0.88;;;;;;;15.48;58.70;99437.47;10428828;28;20105;-58
2024/03/15 11:54:15;;;;;;;0.85;0.80;;;;;;;15.50;57.92;99433.75;10418366;28;20061;-58
2024/03/15 11:59:17;;;;;;;1.27;0.88;;;;;;;15.62;57.95;99430.03;10437199;28;20052;-58
2024/03/15 12:04:20;;;;;;;8.82;3.85;;;;;;;15.87;57.46;99429.53;10437787;28;20144;-56
2024/03/15 12:09:23;;;;;;;1.60;1.00;;;;;;;15.79;57.29;99416.22;10437369;28;20049;-54
2024/03/15 12:14:26;;;;;;;1.38;0.68;;;;;;;15.67;57.35;99417.31;10435032;28;20045;-57
2024/03/15 12:19:28;;;;;;;1.00;0.77;;;;;;;15.96;56.79;99418.16;10437277;28;20401;-59
2024/03/15 12:24:32;;;;;;;0.98;0.70;;;;;;;15.73;56.74;99408.00;10438443;28;20102;-58
2024/03/15 12:29:35;;;;;;;1.10;0.80;;;;;;;15.65;57.17;99416.59;10436508;28;20044;-57
2024/03/15 12:34:39;;;;;;;1.45;0.90;;;;;;;15.71;56.85;99402.88;10466916;28;20045;-57
2024/03/15 12:39:42;;;;;;;1.02;0.88;;;;;;;15.28;57.08;99402.31;10435246;28;20485;-55
2024/03/15 12:44:45;;;;;;;1.75;1.15;;;;;;;15.46;56.63;99399.88;10431161;28;20048;-57
2024/03/15 12:49:47;;;;;;;0.88;0.68;;;;;;;15.57;56.31;99403.25;10436507;28;20045;-58
2024/03/15 12:54:49;;;;;;;0.60;0.60;;;;;;;15.42;56.39;99401.94;10437397;28;20044;-58
2024/03/15 12:59:51;;;;;;;2.55;0.80;;;;;;;15.10;56.79;99396.03;10438281;28;20045;-57
2024/03/15 13:04:53;;;;;;;1.33;0.90;;;;;;;14.95;56.13;99399.97;10436726;28;20401;-56
2024/03/15 13:09:55;;;;;;;1.17;0.80;;;;;;;15.18;55.93;99391.75;10437338;28;20098;-56
2024/03/15 13:14:57;;;;;;;0.63;0.63;;;;;;;15.40;55.85;99391.53;10436785;28;20106;-58
2024/03/15 13:19:59;;;;;;;4.97;1.42;;;;;;;15.28;55.85;99386.50;10437426;28;20508;-57
2024/03/15 13:25:03;;;;;;;1.10;0.70;;;;;;;15.52;55.69;99389.66;10437698;28;20457;-57
2024/03/15 13:30:16;;;;;;;1.20;0.98;;;;;;;15.93;54.73;99389.44;10436167;28;20068;-56
2024/03/15 13:35:21;;;;;;;1.83;1.08;;;;;;;16.23;54.58;99380.53;10429950;28;20809;-57
2024/03/15 13:40:25;;;;;;;0.93;0.73;;;;;;;16.09;54.09;99373.88;10430896;28;20924;-58
2024/03/15 13:45:29;;;;;;;1.85;0.80;;;;;;;15.96;54.07;99375.09;10413988;28;20045;-58
2024/03/15 13:50:31;;;;;;;1.20;1.00;;;;;;;15.66;53.96;99376.06;10430508;28;20045;-58
2024/03/15 13:55:34;;;;;;;1.42;0.80;;;;;;;15.72;53.98;99369.41;10424895;28;20041;-58
2024/03/15 14:00:40;;;;;;;1.15;0.90;;;;;;;15.76;53.49;99358.47;10426294;28;20128;-58
2024/03/15 14:05:43;;;;;;;0.80;0.80;;;;;;;16.14;52.79;99353.16;10426981;28;20756;-56
2024/03/15 14:10:48;;;;;;;0.60;0.60;;;;;;;16.39;52.22;99356.19;10429154;28;20049;-58
2024/03/15 14:15:51;;;;;;;2.50;1.58;;;;;;;16.36;50.90;99332.72;10427743;28;20045;-58
2024/03/15 14:20:54;;;;;;;1.35;1.15;;;;;;;16.37;50.23;99337.00;10426964;28;20527;-58
2024/03/15 14:25:56;;;;;;;2.63;1.38;;;;;;;16.06;50.31;99344.31;10427349;28;20682;-55
2024/03/15 14:31:00;;;;;;;1.92;0.98;;;;;;;16.06;51.10;99342.50;10459212;28;20560;-58
2024/03/15 14:36:03;;;;;;;1.00;0.90;;;;;;;16.17;50.58;99334.44;10429357;28;20509;-58
2024/03/15 14:41:06;;;;;;;1.30;0.80;;;;;;;15.86;49.91;99327.66;10429799;28;20408;-56
2024/03/15 14:46:08;;;;;;;0.52;0.52;;;;;;;15.92;50.55;99321.81;10425444;28;20053;-58
2024/03/15 14:51:11;;;;;;;1.15;0.65;;;;;;;16.10;50.58;99322.78;10427992;28;20195;-57
2024/03/15 14:56:13;;;;;;;0.80;0.63;;;;;;;16.45;50.41;99323.97;10422636;28;20127;-56
2024/03/15 15:01:15;;;;;;;0.93;0.70;;;;;;;17.10;49.72;99309.81;10424352;28;20053;-58
2024/03/15 15:06:17;;;;;;;1.92;1.20;;;;;;;17.16;48.62;99317.97;10427894;28;20485;-58
2024/03/15 15:11:20;;;;;;;0.50;0.50;;;;;;;16.91;48.09;99313.38;10426076;28;20063;-57
2024/03/15 15:16:22;;;;;;;1.40;0.65;;;;;;;16.76;48.49;99309.56;10428422;28;20041;-58
2024/03/15 15:21:25;;;;;;;1.95;1.02;;;;;;;16.51;46.98;99294.38;10429437;28;20037;-54
2024/03/15 15:26:28;;;;;;;2.50;0.90;;;;;;;16.44;48.65;99298.56;10427218;28;20964;-58
2024/03/15 15:31:31;;;;;;;1.70;0.93;;;;;;;16.37;48.50;99300.91;10426503;28;20045;-57
2024/03/15 15:36:33;;;;;;;1.65;0.90;;;;;;;16.16;49.00;99292.38;10422814;28;20442;-56
2024/03/15 15:41:35;;;;;;;0.68;0.68;;;;;;;16.17;49.16;99296.66;10425095;28;20570;-56
2024/03/15 15:46:38;;;;;;;1.58;0.75;;;;;;;16.12;49.03;99289.16;10426083;28;20053;-57
2024/03/15 15:51:40;;;;;;;0.80;0.77;;;;;;;15.98;49.26;99289.59;10427944;28;20485;-58
2024/03/15 15:56:43;;;;;;;2.60;1.33;;;;;;;15.92;49.51;99292.81;10423636;28;20263;-58
2024/03/15 16:01:45;;;;;;;0.90;0.52;;;;;;;15.84;49.73;99305.88;10431071;28;20053;-58
2024/03/15 16:06:54;;;;;;;1.08;0.80;;;;;;;15.69;49.22;99307.28;10429989;28;20064;-58
2024/03/15 16:11:57;;;;;;;1.90;0.87;;;;;;;15.61;50.06;99315.03;10427741;28;20136;-57
2024/03/15 16:17:00;;;;;;;1.85;0.70;;;;;;;15.36;50.46;99315.53;10427724;28;20053;-59
2024/03/15 16:22:03;;;;;;;1.90;0.73;;;;;;;15.19;51.42;99335.47;10423119;28;20075;-58
2024/03/15 16:27:05;;;;;;;4.13;1.40;;;;;;;15.07;52.12;99339.19;10428247;28;21002;-59
2024/03/15 16:32:07;;;;;;;1.23;1.00;;;;;;;14.99;51.99;99349.53;10430930;28;20057;-58
2024/03/15 16:37:10;;;;;;;3.33;0.75;;;;;;;14.86;52.08;99348.13;10426571;28;20059;-58
2024/03/15 16:42:17;;;;;;;1.13;0.90;;;;;;;14.70;52.42;99358.28;10435823;28;20180;-58
2024/03/15 16:47:20;;;;;;;1.13;0.55;;;;;;;14.89;52.12;99353.09;10432839;28;20163;-58
2024/03/15 16:52:22;;;;;;;2.83;0.70;;;;;;;14.76;52.32;99357.78;10435657;28;20156;-57
2024/03/15 16:57:26;;;;;;;0.98;0.70;;;;;;;14.80;52.57;99354.72;10433908;28;20041;-58
2024/03/15 17:02:28;;;;;;;0.50;0.38;;;;;;;14.72;52.48;99364.25;10433727;28;20048;-57
2024/03/15 17:07:31;;;;;;;1.17;0.68;;;;;;;14.47;52.97;99368.13;10432666;28;20519;-59
2024/03/15 17:12:35;;;;;;;1.02;0.80;;;;;;;14.28;53.19;99373.25;10432469;28;20565;-58
2024/03/15 17:17:37;;;;;;;1.73;0.70;;;;;;;14.25;52.81;99382.22;10434562;28;20291;-59
2024/03/15 17:22:39;;;;;;;1.20;0.73;;;;;;;14.23;53.14;99375.41;10426669;28;20472;-54
2024/03/15 17:27:42;;;;;;;0.98;0.68;;;;;;;14.25;53.20;99376.13;10463237;28;20144;-58
2024/03/15 17:32:44;;;;;;;1.95;0.82;;;;;;;14.21;53.44;99387.84;10428105;28;20045;-57
2024/03/15 17:37:47;;;;;;;3.78;1.00;;;;;;;14.12;53.81;99378.97;10429403;28;20052;-57
2024/03/15 17:42:49;;;;;;;2.42;1.05;;;;;;;14.16;53.92;99388.25;10427964;28;20098;-54
2024/03/15 17:47:52;;;;;;;2.58;0.90;;;;;;;14.10;53.81;99394.03;10426121;28;20029;-57
2024/03/15 17:52:58;;;;;;;1.15;0.82;;;;;;;14.04;54.35;99391.91;10428508;28;20045;-57
2024/03/15 17:58:00;;;;;;;4.05;1.63;;;;;;;13.94;54.60;99412.03;10427373;28;20077;-57
2024/03/15 18:03:03;;;;;;;3.17;1.20;;;;;;;13.97;54.63;99422.28;10426076;28;20056;-58
2024/03/15 18:08:07;;;;;;;1.20;0.85;;;;;;;13.98;54.62;99423.97;10425782;28;20056;-56
2024/03/15 18:13:11;;;;;;;3.15;1.23;;;;;;;13.94;55.09;99411.19;10429324;28;20053;-57
2024/03/15 18:18:14;;;;;;;1.75;0.80;;;;;;;13.87;55.62;99418.72;10420720;28;20064;-59
2024/03/15 18:23:17;;;;;;;1.20;0.85;;;;;;;13.81;55.77;99421.00;10443504;28;20248;-58
2024/03/15 18:28:19;;;;;;;1.88;0.90;;;;;;;13.86;56.10;99429.38;10427426;28;20090;-58
2024/03/15 18:33:22;;;;;;;2.67;1.00;;;;;;;13.87;55.85;99418.72;10425509;28;20474;-58
2024/03/15 18:38:26;;;;;;;2.53;1.30;;;;;;;13.82;56.29;99444.53;10424921;28;20047;-58
2024/03/15 18:43:28;;;;;;;3.72;1.00;;;;;;;13.72;57.17;99477.78;10427160;28;20064;-59
2024/03/15 18:48:34;;;;;;;0.75;0.57;;;;;;;13.34;57.77;99462.41;10424173;28;20114;-58
2024/03/15 18:53:37;;;;;;;1.00;0.70;;;;;;;13.05;58.16;99481.38;10426657;28;20041;-57
2024/03/15 18:58:40;;;;;;;1.17;0.90;;;;;;;12.64;60.11;99495.03;10424298;28;20047;-58
2024/03/15 19:03:44;;;;;;;0.30;0.30;;;;;;;12.41;59.72;99506.38;10423555;28;20629;-58
2024/03/15 19:08:48;;;;;;;0.50;0.50;;;;;;;12.21;60.06;99513.06;10423760;28;20060;-58
2024/03/15 19:13:52;;;;;;;1.33;0.40;;;;;;;12.20;60.35;99579.53;10420653;28;20064;-58
2024/03/15 19:18:55;;;;;;;0.40;0.40;;;;;;;11.94;60.89;99572.69;10406258;28;20063;-62
2024/03/15 19:23:57;;;;;;;0.95;0.60;;;;;;;11.83;61.28;99580.47;10426280;28;20204;-62
2024/03/15 19:28:59;;;;;;;2.75;0.50;;;;;;;11.55;61.48;99570.25;10426052;28;20061;-62
2024/03/15 19:34:01;;;;;;;0.20;0.20;;;;;;;11.42;62.26;99544.06;10407971;28;20076;-62
2024/03/15 19:39:04;;;;;;;1.15;0.30;;;;;;;11.14;62.48;99492.78;10425579;28;20060;-62
2024/03/15 19:44:06;;;;;;;0.40;0.40;;;;;;;11.01;62.91;99543.44;10425697;28;20049;-61
2024/03/15 19:49:09;;;;;;;15.45;6.25;;;;;;;11.08;63.23;99536.84;10424004;28;20060;-61
2024/03/15 19:54:13;;;;;;;7.32;2.90;;;;;;;11.24;63.08;99537.47;10426067;28;20048;-61
2024/03/15 19:59:15;;;;;;;2.15;1.00;;;;;;;11.23;63.02;99526.16;10418910;28;20052;-61
2024/03/15 20:04:19;;;;;;;0.68;0.68;;;;;;;10.78;64.09;99494.44;10425080;28;20088;-62
2024/03/15 20:09:21;;;;;;;3.90;1.00;;;;;;;10.76;64.04;99506.75;10423782;28;20091;-61
2024/03/15 20:14:24;;;;;;;1.23;0.90;;;;;;;10.62;63.94;99514.69;10425137;28;20045;-61
2024/03/15 20:19:29;;;;;;;0.70;0.65;;;;;;;10.66;64.10;99524.88;10426687;28;20053;-61
2024/03/15 20:24:31;;;;;;;2.88;0.93;;;;;;;10.65;64.23;99519.72;10427139;28;20037;-62
2024/03/15 20:29:37;;;;;;;1.15;0.82;;;;;;;10.70;64.46;99528.94;10430304;28;20052;-61
2024/03/15 20:34:39;;;;;;;1.20;1.10;;;;;;;10.71;64.57;99524.53;10430855;28;20037;-61
2024/03/15 20:39:42;;;;;;;2.50;1.60;;;;;;;10.70;64.64;99520.25;10429847;28;20052;-61
2024/03/15 20:44:45;;;;;;;1.25;1.02;;;;;;;10.60;65.03;99521.81;10427654;28;20071;-61
2024/03/15 20:49:49;;;;;;;1.45;0.80;;;;;;;10.61;65.00;99519.09;10428239;28;20055;-61
2024/03/15 20:54:51;;;;;;;0.95;0.60;;;;;;;10.52;64.88;99530.16;10443802;28;20190;-61
2024/03/15 20:59:53;;;;;;;0.30;0.30;;;;;;;10.50;64.77;99530.25;10430345;28;20119;-62
2024/03/15 21:04:55;;;;;;;0.65;0.65;;;;;;;10.59;65.01;99533.19;10428815;28;20047;-61
2024/03/15 21:10:00;;;;;;;1.80;1.25;;;;;;;10.73;64.55;99531.34;10427748;28;20159;-61
2024/03/15 21:15:05;;;;;;;1.20;0.70;;;;;;;10.83;64.42;99526.31;10426076;28;20040;-61
2024/03/15 21:20:22;;;;;;;0.45;0.45;;;;;;;10.75;64.34;99537.31;10428892;28;20195;-61
2024/03/15 21:25:28;;;;;;;0.60;0.60;;;;;;;10.63;64.22;99539.91;10444415;28;20048;-61
2024/03/15 21:30:31;;;;;;;1.27;0.90;;;;;;;10.52;64.24;99543.25;10430318;28;20098;-61
2024/03/15 21:35:36;;;;;;;1.75;1.02;;;;;;;10.29;64.53;99541.28;10429823;28;20056;-61
2024/03/15 21:40:40;;;;;;;0.80;0.80;;;;;;;10.16;64.86;99542.97;10432724;28;20485;-61
2024/03/15 21:45:48;;;;;;;1.08;1.05;;;;;;;10.08;65.07;99546.09;10435387;28;20409;-61
2024/03/15 21:50:53;;;;;;;1.70;1.17;;;;;;;10.11;64.91;99545.91;10434268;28;20378;-61
2024/03/15 21:55:56;;;;;;;0.63;0.63;;;;;;;10.15;64.82;99547.41;10431364;28;20049;-61
2024/03/15 22:01:01;;;;;;;1.00;0.65;;;;;;;10.12;64.95;99555.41;10434801;28;20139;-61
2024/03/15 22:06:05;;;;;;;1.20;0.70;;;;;;;10.20;65.07;99560.16;10434809;28;20162;-62
2024/03/15 22:11:08;;;;;;;0.60;0.60;;;;;;;10.24;64.99;99557.25;10433237;28;20060;-61
2024/03/15 22:16:10;;;;;;;0.70;0.60;;;;;;;10.25;65.05;99560.69;10433230;28;20094;-61
2024/03/15 22:21:13;;;;;;;0.77;0.60;;;;;;;10.28;65.42;99563.09;10430909;28;20049;-61
2024/03/15 22:26:16;;;;;;;1.35;0.77;;;;;;;10.35;65.26;99564.41;10432320;28;20159;-61
2024/03/15 22:31:19;;;;;;;0.82;0.60;;;;;;;10.39;65.17;99558.03;10434725;28;20057;-61
2024/03/15 22:36:21;;;;;;;2.50;0.90;;;;;;;10.47;65.11;99547.91;10433775;28;20069;-62
2024/03/15 22:41:23;;;;;;;2.45;1.05;;;;;;;10.43;64.90;99542.06;10434592;28;20052;-61
2024/03/15 22:46:25;;;;;;;0.68;0.65;;;;;;;10.35;64.92;99540.88;10434129;28;20040;-61
2024/03/15 22:51:27;;;;;;;2.88;0.95;;;;;;;10.28;65.05;99537.81;10434127;28;20051;-61
2024/03/15 22:56:29;;;;;;;1.02;0.85;;;;;;;10.17;65.46;99542.06;10433477;28;20103;-61
2024/03/15 23:01:37;;;;;;;2.08;0.85;;;;;;;10.32;65.36;99543.66;10433795;28;20114;-62
2024/03/15 23:06:39;;;;;;;1.65;0.70;;;;;;;10.37;65.03;99547.69;10433437;28;20048;-61
2024/03/15 23:11:42;;;;;;;2.72;0.70;;;;;;;10.07;65.30;99546.19;10433669;28;20057;-60
2024/03/15 23:16:44;;;;;;;1.90;0.80;;;;;;;9.84;65.66;99549.41;10432787;28;20068;-61
2024/03/15 23:21:46;;;;;;;0.95;0.70;;;;;;;9.79;65.87;99548.88;10431796;28;20106;-61
2024/03/15 23:26:48;;;;;;;2.00;1.13;;;;;;;9.77;66.16;99535.09;10433160;28;20300;-61
2024/03/15 23:31:51;;;;;;;1.65;1.10;;;;;;;9.70;65.87;99537.22;10431686;28;20053;-60